Time;durP1;ratioP1;P1;durP2;ratioP2;P2;SDS_P1;SDS_P2;PMS_P1;PMS_P2;Temp;Humidity;BMP_temperature;BMP_pressure;BME280_temperature;BME280_humidity;BME280_pressure;Samples;Min_cycle;Max_cycle;Signal;HPM_P1;HPM_P2
2022/07/10 00:00:14;;;;;;;4.70;3.40;;;;;;;15.15;61.68;98603.69;5091102;28;20028;-75
2022/07/10 00:02:41;;;;;;;6.30;3.20;;;;;;;15.15;63.36;98597.34;5089908;28;20511;-74
2022/07/10 00:05:08;;;;;;;5.25;3.75;;;;;;;15.11;62.63;98597.19;5091063;28;20031;-77
2022/07/10 00:07:34;;;;;;;5.25;3.80;;;;;;;15.08;62.95;98592.31;5091207;28;20511;-75
2022/07/10 00:09:59;;;;;;;5.05;3.35;;;;;;;15.06;62.67;98589.06;5090845;28;20024;-75
2022/07/10 00:12:25;;;;;;;7.25;3.40;;;;;;;15.06;62.73;98586.28;5090749;28;20043;-74
2022/07/10 00:14:51;;;;;;;5.15;3.60;;;;;;;15.05;62.91;98587.41;5091004;28;20422;-74
2022/07/10 00:17:17;;;;;;;3.38;3.08;;;;;;;15.06;63.03;98578.00;5090417;28;20027;-74
2022/07/10 00:19:42;;;;;;;5.05;2.88;;;;;;;15.09;63.22;98584.81;5072857;28;20472;-74
2022/07/10 00:22:08;;;;;;;4.03;3.13;;;;;;;15.08;62.99;98580.47;5090842;28;20031;-75
2022/07/10 00:24:33;;;;;;;3.97;2.53;;;;;;;15.11;63.49;98583.38;5090682;28;20111;-75
2022/07/10 00:26:59;;;;;;;3.55;2.90;;;;;;;15.14;63.34;98584.66;5090881;28;20527;-73
2022/07/10 00:29:25;;;;;;;5.13;2.90;;;;;;;15.17;63.15;98584.00;5086192;28;20103;-75
2022/07/10 00:31:50;;;;;;;3.30;2.83;;;;;;;15.18;63.19;98578.19;5072363;28;20039;-73
2022/07/10 00:34:16;;;;;;;2.67;2.38;;;;;;;15.22;63.47;98577.53;5090670;28;20024;-74
2022/07/10 00:36:41;;;;;;;3.35;2.60;;;;;;;15.25;63.41;98574.13;5090368;28;20046;-75
2022/07/10 00:39:06;;;;;;;4.05;2.67;;;;;;;15.26;62.90;98576.56;5090611;28;20028;-75
2022/07/10 00:41:32;;;;;;;3.58;2.60;;;;;;;15.28;63.51;98566.00;5090339;28;20223;-75
2022/07/10 00:44:02;;;;;;;3.40;2.60;;;;;;;15.27;63.28;98575.41;5090660;28;20114;-75
2022/07/10 00:46:30;;;;;;;3.88;2.97;;;;;;;15.27;62.99;98569.09;5088864;28;20724;-75
2022/07/10 00:48:56;;;;;;;5.70;2.75;;;;;;;15.28;63.25;98565.19;5090512;28;20099;-74
2022/07/10 00:51:24;;;;;;;4.40;2.85;;;;;;;15.26;63.17;98562.75;5089400;28;20384;-75
2022/07/10 00:53:49;;;;;;;2.60;2.30;;;;;;;15.26;64.10;98556.41;5089941;28;20446;-75
2022/07/10 00:56:23;;;;;;;2.72;2.42;;;;;;;15.25;63.65;98558.34;5089701;28;20103;-77
2022/07/10 00:58:49;;;;;;;3.47;2.45;;;;;;;15.27;63.71;98553.31;5088314;28;20028;-75
2022/07/10 01:01:16;;;;;;;4.28;2.67;;;;;;;15.28;63.36;98554.13;5089654;28;20415;-76
2022/07/10 01:03:43;;;;;;;4.15;2.40;;;;;;;15.31;63.29;98543.25;5089709;28;20031;-76
2022/07/10 01:06:09;;;;;;;4.35;2.35;;;;;;;15.31;63.78;98540.47;5089432;28;20032;-76
2022/07/10 01:08:35;;;;;;;4.65;2.40;;;;;;;15.31;63.42;98540.47;5089631;28;20491;-75
2022/07/10 01:11:01;;;;;;;2.22;2.00;;;;;;;15.35;63.56;98542.59;5089266;28;20027;-75
2022/07/10 01:13:27;;;;;;;3.05;2.17;;;;;;;15.36;63.55;98546.97;5089425;28;20036;-75
2022/07/10 01:15:53;;;;;;;4.72;2.30;;;;;;;15.33;63.64;98540.97;5089319;28;20379;-74
2022/07/10 01:18:19;;;;;;;2.95;2.17;;;;;;;15.33;63.89;98542.91;5089058;28;20048;-75
2022/07/10 01:20:44;;;;;;;3.80;2.40;;;;;;;15.30;63.46;98538.84;5089814;28;20472;-76
2022/07/10 01:23:10;;;;;;;3.72;2.30;;;;;;;15.31;63.97;98542.41;5089472;28;20078;-75
2022/07/10 01:25:36;;;;;;;3.47;2.20;;;;;;;15.31;63.65;98542.41;5089310;28;20036;-75
2022/07/10 01:28:01;;;;;;;4.13;2.33;;;;;;;15.29;63.63;98534.47;5089281;28;20099;-75
2022/07/10 01:30:27;;;;;;;2.60;2.10;;;;;;;15.31;63.71;98532.19;5088624;28;20070;-77
2022/07/10 01:32:53;;;;;;;3.15;2.25;;;;;;;15.34;63.37;98536.22;5088988;28;20506;-76
2022/07/10 01:35:19;;;;;;;3.08;2.33;;;;;;;15.36;63.26;98530.41;5089495;28;20132;-75
2022/07/10 01:37:45;;;;;;;3.58;2.15;;;;;;;15.38;63.86;98530.88;5089505;28;20111;-75
2022/07/10 01:40:11;;;;;;;3.53;2.03;;;;;;;15.38;63.50;98526.16;5089751;28;20256;-76
2022/07/10 01:42:37;;;;;;;2.42;1.77;;;;;;;15.39;63.58;98513.16;5089333;28;20085;-75
2022/07/10 01:45:05;;;;;;;3.72;1.92;;;;;;;15.40;63.40;98512.81;5089239;28;20082;-75
2022/07/10 01:47:30;;;;;;;3.65;2.30;;;;;;;15.41;63.50;98514.44;5089189;28;20088;-75
2022/07/10 01:49:56;;;;;;;3.85;2.20;;;;;;;15.41;63.42;98500.63;5071234;28;20020;-76
2022/07/10 01:52:21;;;;;;;3.40;2.00;;;;;;;15.41;63.41;98502.59;5088798;28;20032;-75
2022/07/10 01:54:50;;;;;;;2.83;1.90;;;;;;;15.43;63.40;98497.56;5084937;28;20038;-75
2022/07/10 01:57:15;;;;;;;3.30;1.90;;;;;;;15.44;63.40;98508.28;5084621;28;20030;-75
2022/07/10 01:59:41;;;;;;;2.83;1.98;;;;;;;15.42;63.59;98505.03;5089176;28;20102;-75
2022/07/10 02:02:07;;;;;;;2.53;1.85;;;;;;;15.40;63.78;98504.53;5088765;28;20054;-75
2022/07/10 02:04:42;;;;;;;3.50;2.15;;;;;;;15.39;63.10;98505.66;5088808;28;20034;-76
2022/07/10 02:07:11;;;;;;;1.92;1.67;;;;;;;15.38;63.12;98504.03;5087972;28;20126;-75
2022/07/10 02:09:38;;;;;;;;;;;;;;;15.36;63.25;98500.00;5089178;28;20035;-75
2022/07/10 02:12:04;;;;;;;3.25;1.90;;;;;;;15.32;63.06;98497.88;5087608;28;19912;-76
2022/07/10 02:14:30;;;;;;;2.38;1.77;;;;;;;15.29;63.37;98498.53;5070875;28;20039;-75
2022/07/10 02:16:55;;;;;;;3.30;2.00;;;;;;;15.30;63.35;98508.44;5070704;28;20024;-75
2022/07/10 02:19:21;;;;;;;2.42;1.83;;;;;;;15.26;63.68;98499.19;5088975;28;20042;-75
2022/07/10 02:21:47;;;;;;;2.33;1.80;;;;;;;15.27;63.43;98497.25;5088491;28;20107;-74
2022/07/10 02:24:13;;;;;;;2.58;1.88;;;;;;;15.28;63.73;98498.88;5088975;28;20024;-75
2022/07/10 02:26:38;;;;;;;2.47;1.90;;;;;;;15.29;63.46;98503.22;5088673;28;20476;-75
2022/07/10 02:29:04;;;;;;;3.85;1.88;;;;;;;15.30;63.65;98504.84;5089225;28;20038;-74
2022/07/10 02:31:29;;;;;;;2.50;1.70;;;;;;;15.32;63.38;98510.88;5089000;28;20032;-75
2022/07/10 02:33:55;;;;;;;2.30;1.60;;;;;;;15.33;63.45;98502.28;5089427;28;20095;-77
2022/07/10 02:36:20;;;;;;;3.35;1.70;;;;;;;15.35;63.82;98493.66;5089023;28;20107;-75
2022/07/10 02:38:46;;;;;;;1.75;1.58;;;;;;;15.32;64.01;98486.84;5088467;28;20043;-76
2022/07/10 02:41:11;;;;;;;1.88;1.60;;;;;;;15.31;63.39;98492.66;5090223;28;20050;-76
2022/07/10 02:43:37;;;;;;;3.75;1.85;;;;;;;15.35;63.66;98493.66;5092214;28;20103;-75
2022/07/10 02:46:02;;;;;;;2.42;1.88;;;;;;;15.33;63.56;98495.91;5091960;28;20456;-75
2022/07/10 02:48:28;;;;;;;3.10;1.80;;;;;;;15.29;63.95;98490.25;5092862;28;20035;-76
2022/07/10 02:50:53;;;;;;;1.55;1.40;;;;;;;15.27;63.87;98489.75;5092399;28;20047;-76
2022/07/10 02:53:19;;;;;;;2.22;1.60;;;;;;;15.29;63.61;98494.94;5092358;28;20434;-76
2022/07/10 02:55:44;;;;;;;3.05;1.40;;;;;;;15.30;63.90;98488.28;5092622;28;20700;-76
2022/07/10 02:58:10;;;;;;;2.53;1.42;;;;;;;15.30;64.02;98477.22;5092189;28;20059;-76
2022/07/10 03:00:36;;;;;;;2.13;1.33;;;;;;;15.30;63.81;98477.22;5092420;28;20051;-76
2022/07/10 03:03:02;;;;;;;2.92;1.50;;;;;;;15.30;63.92;98480.81;5092641;28;20022;-76
2022/07/10 03:05:27;;;;;;;2.58;1.40;;;;;;;15.29;63.75;98473.66;5092115;28;20024;-76
2022/07/10 03:07:53;;;;;;;2.58;1.75;;;;;;;15.30;63.95;98478.06;5092248;28;20032;-76
2022/07/10 03:10:18;;;;;;;2.50;1.58;;;;;;;15.29;64.04;98476.44;5092640;28;20043;-76
2022/07/10 03:12:44;;;;;;;2.85;1.50;;;;;;;15.32;64.30;98473.03;5092328;28;20104;-76
2022/07/10 03:15:10;;;;;;;3.45;1.40;;;;;;;15.30;64.27;98472.53;5092558;28;20028;-75
2022/07/10 03:17:35;;;;;;;2.53;1.58;;;;;;;15.33;64.43;98487.63;5092020;28;20027;-76
2022/07/10 03:20:00;;;;;;;3.00;1.48;;;;;;;15.37;64.33;98482.28;5092549;28;20028;-76
2022/07/10 03:22:28;;;;;;;2.08;1.52;;;;;;;15.34;64.36;98480.97;5092254;28;20023;-75
2022/07/10 03:24:53;;;;;;;3.10;1.70;;;;;;;15.30;64.11;98480.00;5092186;28;20533;-76
2022/07/10 03:27:19;;;;;;;2.20;1.75;;;;;;;15.27;64.46;98477.91;5092294;28;20028;-76
2022/07/10 03:29:46;;;;;;;3.38;1.50;;;;;;;15.21;64.59;98479.22;5091780;28;20103;-76
2022/07/10 03:32:11;;;;;;;4.40;1.60;;;;;;;15.20;64.51;98478.38;5091969;28;20028;-76
2022/07/10 03:34:37;;;;;;;2.75;1.58;;;;;;;15.19;64.66;98482.28;5092223;28;20114;-76
2022/07/10 03:37:03;;;;;;;2.40;1.77;;;;;;;15.20;64.80;98474.81;5091467;28;20035;-78
2022/07/10 03:39:28;;;;;;;3.30;1.80;;;;;;;15.18;65.40;98478.72;5091168;28;20028;-77
2022/07/10 03:41:53;;;;;;;2.03;1.80;;;;;;;15.18;64.97;98481.50;5091434;28;20024;-76
2022/07/10 03:44:19;;;;;;;4.32;1.80;;;;;;;15.18;64.77;98478.72;5092415;28;20020;-75
2022/07/10 03:46:44;;;;;;;2.88;1.77;;;;;;;15.20;65.06;98481.16;5092328;28;20096;-77
2022/07/10 03:49:10;;;;;;;3.55;2.15;;;;;;;15.19;65.23;98482.28;5091688;28;20468;-77
2022/07/10 03:51:35;;;;;;;3.90;1.80;;;;;;;15.17;65.33;98482.63;5091415;28;20020;-76
2022/07/10 03:54:00;;;;;;;2.42;1.92;;;;;;;15.16;65.35;98478.25;5092026;28;20049;-76
2022/07/10 03:59:10;;;;;;;2.67;2.30;;;;;;;15.22;65.38;98487.16;5091907;28;20043;-77
2022/07/10 04:01:35;;;;;;;2.97;1.83;;;;;;;15.21;65.49;98485.53;5091544;28;20028;-77
2022/07/10 04:04:00;;;;;;;2.88;2.03;;;;;;;15.20;65.74;98483.13;5091979;28;20024;-76
2022/07/10 04:06:26;;;;;;;4.00;2.22;;;;;;;15.18;65.79;98481.50;5091666;28;20028;-76
2022/07/10 04:08:51;;;;;;;3.00;1.92;;;;;;;15.18;66.08;98481.50;5091772;28;20020;-76
2022/07/10 04:11:17;;;;;;;3.03;2.20;;;;;;;15.15;66.34;98484.06;5091464;28;20480;-76
2022/07/10 04:13:42;;;;;;;3.65;1.75;;;;;;;15.09;66.45;98475.16;5073598;28;20034;-77
2022/07/10 04:16:12;;;;;;;3.35;2.08;;;;;;;15.09;66.28;98474.31;5091560;28;20450;-76
2022/07/10 04:18:38;;;;;;;5.07;1.92;;;;;;;15.12;66.18;98480.03;5091016;28;20079;-77
2022/07/10 04:21:04;;;;;;;3.08;1.83;;;;;;;15.12;66.26;98476.44;5090905;28;20487;-76
2022/07/10 04:23:29;;;;;;;2.35;2.10;;;;;;;15.15;66.04;98481.31;5091397;28;20078;-76
2022/07/10 04:25:56;;;;;;;2.80;2.13;;;;;;;15.17;66.35;98479.88;5092776;28;20024;-76
2022/07/10 04:28:21;;;;;;;2.60;2.10;;;;;;;15.23;66.36;98486.03;5088258;28;20023;-77
2022/07/10 04:30:47;;;;;;;3.10;2.08;;;;;;;15.32;66.47;98488.78;5091998;28;20028;-77
2022/07/10 04:33:12;;;;;;;4.10;2.30;;;;;;;15.36;66.54;98481.44;5091746;28;20047;-75
2022/07/10 04:35:38;;;;;;;2.83;2.35;;;;;;;15.40;66.78;98482.44;5092183;28;20004;-77
2022/07/10 04:38:03;;;;;;;2.97;2.13;;;;;;;15.44;66.10;98488.13;5092270;28;20430;-77
2022/07/10 04:40:29;;;;;;;4.07;2.10;;;;;;;15.48;66.63;98481.59;5091707;28;20028;-76
2022/07/10 04:42:54;;;;;;;5.43;2.15;;;;;;;15.53;66.35;98482.56;5092253;28;20484;-77
2022/07/10 04:45:20;;;;;;;2.58;1.80;;;;;;;15.54;66.92;98482.22;5091714;28;20055;-76
2022/07/10 04:47:45;;;;;;;3.47;1.70;;;;;;;15.55;66.78;98491.34;5091810;28;20515;-77
2022/07/10 04:50:10;;;;;;;1.98;1.65;;;;;;;15.51;66.26;98485.66;5091711;28;20024;-76
2022/07/10 04:52:36;;;;;;;1.98;1.50;;;;;;;15.53;66.40;98485.34;5091801;28;20020;-77
2022/07/10 04:55:01;;;;;;;2.28;1.73;;;;;;;15.56;66.32;98490.22;5091904;28;20407;-76
2022/07/10 04:57:27;;;;;;;2.50;1.40;;;;;;;15.56;66.35;98492.97;5073529;28;20031;-77
2022/07/10 04:59:53;;;;;;;1.88;1.45;;;;;;;15.55;66.36;98491.34;5091375;28;20131;-78
2022/07/10 05:02:19;;;;;;;2.60;1.67;;;;;;;15.56;66.32;98490.22;5090826;28;20024;-77
2022/07/10 05:04:44;;;;;;;1.83;1.40;;;;;;;15.54;66.46;98490.53;5072776;28;20039;-76
2022/07/10 05:07:09;;;;;;;2.70;1.58;;;;;;;15.54;66.84;98493.28;5091286;28;20468;-77
2022/07/10 05:09:35;;;;;;;2.22;1.50;;;;;;;15.50;66.16;98491.53;5091207;28;20020;-76
2022/07/10 05:12:00;;;;;;;1.70;1.50;;;;;;;15.43;66.18;98490.06;5091190;28;20103;-75
2022/07/10 05:14:26;;;;;;;2.42;1.60;;;;;;;15.44;66.21;98493.66;5091496;28;20064;-77
2022/07/10 05:16:51;;;;;;;1.73;1.50;;;;;;;15.51;66.27;98501.44;5091235;28;20032;-77
2022/07/10 05:19:16;;;;;;;2.83;1.83;;;;;;;15.62;66.46;98497.19;5090546;28;20093;-77
2022/07/10 05:21:42;;;;;;;2.90;1.50;;;;;;;15.63;66.27;98501.56;5090887;28;20016;-77
2022/07/10 05:24:07;;;;;;;3.15;1.70;;;;;;;15.56;66.11;98502.06;5091039;28;20557;-77
2022/07/10 05:26:33;;;;;;;5.78;1.70;;;;;;;15.54;66.23;98498.81;5090907;28;20400;-77
2022/07/10 05:28:58;;;;;;;2.72;1.60;;;;;;;15.61;65.99;98496.38;5091326;28;20050;-77
2022/07/10 05:31:23;;;;;;;2.75;1.70;;;;;;;15.70;66.36;98499.09;5090372;28;20115;-76
2022/07/10 05:33:49;;;;;;;5.78;1.83;;;;;;;15.80;66.01;98497.94;5090884;28;20388;-77
2022/07/10 05:36:14;;;;;;;1.80;1.70;;;;;;;15.88;65.75;98499.09;5090649;28;20036;-77
2022/07/10 05:38:40;;;;;;;5.28;1.95;;;;;;;15.90;65.24;98494.03;5091008;28;20395;-76
2022/07/10 05:41:05;;;;;;;3.45;2.15;;;;;;;15.91;65.27;98487.38;5090456;28;20102;-76
2022/07/10 05:43:30;;;;;;;2.00;1.80;;;;;;;15.93;65.46;98479.56;5091074;28;20024;-75
2022/07/10 05:45:56;;;;;;;3.58;1.83;;;;;;;15.95;64.66;98493.03;5090712;28;20419;-77
2022/07/10 05:48:22;;;;;;;4.18;1.70;;;;;;;15.93;64.67;98494.19;5090771;28;20032;-77
2022/07/10 05:50:47;;;;;;;3.45;1.73;;;;;;;15.99;64.82;98491.22;5090035;28;20431;-77
2022/07/10 05:53:12;;;;;;;5.43;1.95;;;;;;;16.06;64.73;98497.06;5090291;28;20081;-76
2022/07/10 05:55:38;;;;;;;2.72;1.60;;;;;;;16.07;64.08;98501.44;5090350;28;20028;-77
2022/07/10 05:58:03;;;;;;;4.32;2.05;;;;;;;16.05;63.48;98503.75;5090620;28;20024;-76
2022/07/10 06:00:29;;;;;;;3.72;2.05;;;;;;;16.03;64.04;98492.19;5090400;28;20024;-76
2022/07/10 06:02:54;;;;;;;2.65;1.80;;;;;;;16.10;63.90;98489.72;5090465;28;20024;-76
2022/07/10 06:05:20;;;;;;;2.45;1.70;;;;;;;16.17;63.74;98503.03;5090443;28;20361;-76
2022/07/10 06:07:45;;;;;;;3.47;1.98;;;;;;;16.07;63.62;98505.06;5090233;28;20051;-76
2022/07/10 06:10:10;;;;;;;3.10;1.50;;;;;;;16.05;63.22;98501.81;5090056;28;20036;-77
2022/07/10 06:12:37;;;;;;;3.40;1.60;;;;;;;16.03;62.96;98503.25;5072175;28;20368;-75
2022/07/10 06:15:03;;;;;;;2.60;1.50;;;;;;;16.02;63.26;98510.75;5090925;28;20024;-76
2022/07/10 06:17:28;;;;;;;3.33;1.50;;;;;;;16.09;63.15;98504.69;5094260;28;20032;-77
2022/07/10 06:19:54;;;;;;;4.10;1.58;;;;;;;16.22;63.52;98505.63;5094318;28;20376;-77
2022/07/10 06:22:32;;;;;;;6.20;3.63;;;;;;;16.37;62.40;98501.47;5093988;28;20025;-77
2022/07/10 06:24:58;;;;;;;6.57;3.75;;;;;;;16.56;62.40;98501.03;5091751;28;20032;-77
2022/07/10 06:27:24;;;;;;;4.05;2.00;;;;;;;16.74;62.20;98498.16;5094497;28;20490;-76
2022/07/10 06:29:49;;;;;;;1.85;1.20;;;;;;;16.90;62.04;98499.19;5094510;28;20107;-77
2022/07/10 06:32:15;;;;;;;4.90;1.45;;;;;;;17.02;61.13;98495.72;5093799;28;20024;-76
2022/07/10 06:34:40;;;;;;;3.60;1.33;;;;;;;17.09;60.14;98500.69;5094161;28;20028;-77
2022/07/10 06:37:06;;;;;;;3.15;1.38;;;;;;;17.16;60.77;98498.19;5093936;28;20530;-76
2022/07/10 06:39:34;;;;;;;3.53;1.30;;;;;;;17.30;60.82;98494.34;5094199;28;20024;-77
2022/07/10 06:42:04;;;;;;;2.20;1.20;;;;;;;17.38;59.22;98504.50;5090657;28;20107;-76
2022/07/10 06:44:29;;;;;;;3.08;1.35;;;;;;;17.38;59.53;98507.28;5094042;28;20055;-77
2022/07/10 06:49:40;;;;;;;2.13;1.10;;;;;;;17.26;57.17;98505.28;5094460;28;20036;-76
2022/07/10 06:52:06;;;;;;;4.00;1.00;;;;;;;17.10;56.43;98507.84;5093742;28;20031;-77
2022/07/10 06:54:32;;;;;;;3.53;1.10;;;;;;;16.98;56.16;98513.31;5093951;28;20024;-77
2022/07/10 06:56:58;;;;;;;2.40;1.00;;;;;;;16.92;56.14;98502.41;5090160;28;20069;-77
2022/07/10 06:59:23;;;;;;;4.40;1.10;;;;;;;16.99;56.13;98501.09;5093703;28;20430;-77
2022/07/10 07:01:49;;;;;;;2.85;0.90;;;;;;;17.06;56.23;98506.91;5093218;28;20484;-77
2022/07/10 07:04:14;;;;;;;1.75;0.68;;;;;;;17.13;55.41;98515.50;5093494;28;20062;-76
2022/07/10 07:06:40;;;;;;;2.90;0.80;;;;;;;17.10;55.21;98508.69;5093199;28;20046;-76
2022/07/10 07:09:07;;;;;;;3.78;1.00;;;;;;;17.10;54.45;98510.63;5093689;28;20028;-77
2022/07/10 07:11:32;;;;;;;4.47;0.80;;;;;;;17.13;54.50;98515.50;5089399;28;20020;-77
2022/07/10 07:13:57;;;;;;;3.72;1.98;;;;;;;17.17;53.53;98510.06;5075259;28;20108;-76
2022/07/10 07:16:37;;;;;;;3.50;1.10;;;;;;;17.23;54.46;98512.31;5093263;28;20070;-77
2022/07/10 07:19:04;;;;;;;3.88;0.82;;;;;;;17.36;54.31;98509.56;5089376;28;20040;-75
2022/07/10 07:24:14;;;;;;;2.35;1.02;;;;;;;17.47;53.57;98510.00;5093550;28;20035;-76
2022/07/10 07:26:40;;;;;;;3.80;1.10;;;;;;;17.47;53.39;98515.53;5092063;28;20032;-75
2022/07/10 07:29:05;;;;;;;4.95;1.20;;;;;;;17.47;53.44;98510.00;5093095;28;20350;-75
2022/07/10 07:31:31;;;;;;;2.80;0.80;;;;;;;17.44;52.84;98517.00;5092290;28;20028;-76
2022/07/10 07:33:57;;;;;;;2.15;1.00;;;;;;;17.40;53.58;98513.28;5093153;28;20071;-78
2022/07/10 07:36:22;;;;;;;2.67;1.00;;;;;;;17.33;53.18;98515.81;5093112;28;20036;-76
2022/07/10 07:38:48;;;;;;;1.67;0.80;;;;;;;17.29;53.97;98525.97;5092780;28;20487;-77
2022/07/10 07:41:13;;;;;;;2.60;0.85;;;;;;;17.29;53.65;98525.97;5091969;28;20392;-77
2022/07/10 07:43:39;;;;;;;2.60;0.70;;;;;;;17.24;53.57;98518.66;5092761;28;20023;-76
2022/07/10 07:46:04;;;;;;;3.45;1.10;;;;;;;17.21;54.36;98511.03;5092660;28;20032;-77
2022/07/10 07:48:29;;;;;;;2.85;0.85;;;;;;;17.29;53.77;98510.13;5092693;28;20024;-78
2022/07/10 07:50:55;;;;;;;4.57;1.00;;;;;;;17.40;53.25;98505.81;5074533;28;20476;-78
2022/07/10 07:53:20;;;;;;;2.67;0.90;;;;;;;17.50;52.21;98504.56;5092072;28;20365;-77
2022/07/10 07:55:46;;;;;;;2.00;0.88;;;;;;;17.60;52.51;98503.31;5092876;28;20020;-77
2022/07/10 07:58:11;;;;;;;3.10;1.00;;;;;;;17.70;52.80;98513.19;5092541;28;20083;-77
2022/07/10 08:00:37;;;;;;;2.55;0.90;;;;;;;17.77;52.78;98516.19;5092411;28;20025;-74
2022/07/10 08:03:03;;;;;;;3.30;0.90;;;;;;;17.86;52.41;98507.78;5091617;28;20488;-75
2022/07/10 08:05:29;;;;;;;4.38;1.13;;;;;;;17.93;51.72;98510.78;5091933;28;20145;-75
2022/07/10 08:08:04;;;;;;;4.00;1.00;;;;;;;18.00;51.13;98508.28;5086193;28;20475;-74
2022/07/10 08:10:30;;;;;;;3.35;1.00;;;;;;;18.10;51.40;98500.66;5091090;28;20706;-74
2022/07/10 08:12:56;;;;;;;2.88;1.02;;;;;;;18.19;50.42;98519.97;5090519;28;20024;-73
2022/07/10 08:15:22;;;;;;;1.70;0.77;;;;;;;18.23;50.12;98496.75;5091139;28;20034;-75
2022/07/10 08:17:52;;;;;;;4.60;0.98;;;;;;;18.20;50.14;98510.50;5090701;28;20027;-75
2022/07/10 08:20:18;;;;;;;3.05;1.20;;;;;;;18.11;50.28;98510.63;5088434;28;20032;-75
2022/07/10 08:22:44;;;;;;;2.40;0.80;;;;;;;17.95;49.74;98513.22;5090556;28;20067;-74
2022/07/10 08:25:10;;;;;;;3.35;0.90;;;;;;;17.76;50.38;98517.34;5090682;28;20448;-75
2022/07/10 08:27:36;;;;;;;3.58;1.00;;;;;;;17.62;50.25;98517.66;5090930;28;20028;-74
2022/07/10 08:30:03;;;;;;;1.45;0.73;;;;;;;17.41;50.94;98517.69;5090970;28;20090;-72
2022/07/10 08:32:29;;;;;;;3.03;1.10;;;;;;;17.28;51.62;98529.91;5090168;28;20533;-74
2022/07/10 08:34:54;;;;;;;3.22;1.02;;;;;;;17.08;51.56;98537.88;5090028;28;20056;-73
2022/07/10 08:37:20;;;;;;;2.28;0.73;;;;;;;16.87;51.83;98538.66;5090441;28;20098;-74
2022/07/10 08:39:46;;;;;;;4.00;0.82;;;;;;;16.66;52.78;98541.38;5090150;28;20015;-74
2022/07/10 08:42:12;;;;;;;5.25;0.80;;;;;;;16.48;52.85;98533.16;5090494;28;20012;-74
2022/07/10 08:44:38;;;;;;;3.22;0.80;;;;;;;16.36;53.25;98536.66;5090420;28;20032;-74
2022/07/10 08:47:04;;;;;;;3.00;0.85;;;;;;;16.44;53.71;98534.19;5089968;28;20036;-74
2022/07/10 08:49:30;;;;;;;2.60;0.85;;;;;;;16.58;54.03;98536.72;5090194;28;20024;-74
2022/07/10 08:52:03;;;;;;;3.45;0.80;;;;;;;16.65;54.04;98535.03;5090405;28;20027;-74
2022/07/10 08:54:29;;;;;;;2.63;0.80;;;;;;;16.83;54.14;98532.16;5088320;28;20028;-74
2022/07/10 08:57:00;;;;;;;2.55;0.82;;;;;;;16.97;53.92;98526.38;5090709;28;20032;-74
2022/07/10 08:59:26;;;;;;;2.50;0.85;;;;;;;16.97;53.49;98529.16;5090374;28;20630;-75
2022/07/10 09:01:53;;;;;;;3.03;0.90;;;;;;;16.95;53.76;98529.44;5089756;28;20027;-74
2022/07/10 09:04:21;;;;;;;4.05;1.00;;;;;;;16.94;53.56;98538.91;5090184;28;20023;-74
2022/07/10 09:06:47;;;;;;;4.43;0.70;;;;;;;16.85;53.18;98535.41;5088896;28;20236;-74
2022/07/10 09:09:12;;;;;;;5.50;1.05;;;;;;;16.78;52.97;98529.56;5090188;28;20024;-74
2022/07/10 09:11:40;;;;;;;2.53;1.40;;;;;;;16.67;52.53;98527.19;5090069;28;20531;-74
2022/07/10 09:14:08;;;;;;;4.65;1.35;;;;;;;16.57;52.69;98526.78;5089624;28;20384;-74
2022/07/10 09:16:36;;;;;;;3.58;1.00;;;;;;;16.51;53.16;98537.22;5090271;28;20036;-73
2022/07/10 09:19:14;;;;;;;3.45;0.80;;;;;;;16.39;52.73;98542.66;5088285;28;20040;-75
2022/07/10 09:21:39;;;;;;;3.00;0.80;;;;;;;16.31;52.54;98536.00;5089180;28;20039;-74
2022/07/10 09:24:07;;;;;;;2.22;0.80;;;;;;;16.36;53.09;98539.41;5092140;28;20020;-74
2022/07/10 09:26:33;;;;;;;3.15;1.02;;;;;;;16.55;52.52;98540.94;5088570;28;20579;-74
2022/07/10 09:29:08;;;;;;;2.03;0.80;;;;;;;16.67;52.65;98535.50;5090035;28;20112;-74
2022/07/10 09:31:50;;;;;;;3.80;1.10;;;;;;;16.89;52.91;98529.97;5088299;28;20020;-74
2022/07/10 09:34:15;;;;;;;4.15;0.90;;;;;;;17.10;52.97;98519.75;5087341;28;20115;-74
2022/07/10 09:36:41;;;;;;;3.92;0.80;;;;;;;17.38;52.43;98508.09;5090220;28;20106;-74
2022/07/10 09:39:06;;;;;;;1.55;0.82;;;;;;;17.61;52.54;98506.91;5089586;28;20031;-74
2022/07/10 09:41:32;;;;;;;1.77;0.70;;;;;;;17.83;51.77;98508.47;5089447;28;20020;-75
2022/07/10 09:44:04;;;;;;;1.90;0.70;;;;;;;17.97;51.00;98510.91;5089084;28;20032;-75
2022/07/10 09:46:35;;;;;;;4.53;1.00;;;;;;;18.02;50.50;98507.94;5089684;28;20060;-74
2022/07/10 09:49:14;;;;;;;3.05;0.95;;;;;;;18.17;50.73;98519.50;5090032;28;20024;-73
2022/07/10 09:51:45;;;;;;;2.35;1.00;;;;;;;18.26;48.87;98514.66;5088892;28;20102;-74
2022/07/10 09:54:11;;;;;;;3.45;0.65;;;;;;;18.32;49.61;98513.28;5089820;28;20030;-74
2022/07/10 09:56:42;;;;;;;2.33;0.63;;;;;;;18.45;48.98;98514.91;5089722;28;20024;-74
2022/07/10 09:59:13;;;;;;;2.80;1.10;;;;;;;18.50;48.24;98502.75;5071576;28;20029;-74
2022/07/10 10:01:43;;;;;;;2.88;0.90;;;;;;;18.61;47.47;98511.41;5089629;28;20032;-74
2022/07/10 10:04:10;;;;;;;1.40;0.60;;;;;;;18.70;46.80;98511.31;5071569;28;20035;-74
2022/07/10 10:06:38;;;;;;;1.85;0.90;;;;;;;18.79;46.49;98502.84;5089255;28;20028;-75
2022/07/10 10:09:24;;;;;;;5.35;0.88;;;;;;;18.96;47.00;98499.00;5089395;28;20031;-74
2022/07/10 10:11:56;;;;;;;3.67;1.00;;;;;;;19.12;45.11;98494.34;5089506;28;20376;-74
2022/07/10 10:14:23;;;;;;;4.88;1.10;;;;;;;19.18;44.61;98501.25;5071577;28;20020;-75
2022/07/10 10:16:50;;;;;;;1.83;0.60;;;;;;;19.18;45.08;98500.44;5089766;28;20032;-74
2022/07/10 10:22:02;;;;;;;3.30;0.80;;;;;;;19.23;44.17;98488.25;5087924;28;20091;-75
2022/07/10 10:24:32;;;;;;;2.38;0.80;;;;;;;19.04;44.78;98484.16;5089359;28;20051;-75
2022/07/10 10:26:57;;;;;;;2.05;0.90;;;;;;;18.94;44.12;98490.19;5089434;28;20039;-74
2022/07/10 10:29:23;;;;;;;1.80;0.68;;;;;;;18.90;45.11;98490.09;5089417;28;20282;-74
2022/07/10 10:31:49;;;;;;;3.25;0.88;;;;;;;18.89;44.25;98486.47;5088881;28;20403;-75
2022/07/10 10:34:42;;;;;;;1.98;0.70;;;;;;;18.98;44.39;98475.25;5089022;28;20436;-76
2022/07/10 10:37:27;;;;;;;2.35;0.68;;;;;;;19.17;43.43;98479.38;5071318;28;20028;-75
2022/07/10 10:39:54;;;;;;;2.40;0.60;;;;;;;19.26;41.97;98485.59;5085810;28;20195;-75
2022/07/10 10:42:43;;;;;;;3.33;0.60;;;;;;;19.32;41.73;98488.91;5085625;28;20052;-75
2022/07/10 10:45:36;;;;;;;1.42;0.52;;;;;;;19.31;41.85;98481.72;5087580;28;20764;-75
2022/07/10 10:48:09;;;;;;;1.90;0.60;;;;;;;19.18;41.25;98484.56;5086898;28;20020;-74
2022/07/10 10:50:48;;;;;;;3.20;0.50;;;;;;;19.16;40.62;98497.19;5089106;28;20640;-75
2022/07/10 10:53:26;;;;;;;3.85;0.77;;;;;;;19.17;41.63;98488.50;5088531;28;20385;-75
2022/07/10 10:56:03;;;;;;;1.92;0.50;;;;;;;19.15;40.26;98482.50;5070561;28;20518;-76
2022/07/10 10:58:45;;;;;;;2.20;0.60;;;;;;;19.11;40.83;98475.22;5085698;28;20091;-75
2022/07/10 11:01:20;;;;;;;3.10;0.60;;;;;;;19.12;41.09;98477.66;5068811;28;20441;-75
2022/07/10 11:04:08;;;;;;;1.63;0.50;;;;;;;19.26;40.95;98481.97;5092921;28;20273;-76
2022/07/10 11:06:41;;;;;;;1.10;0.60;;;;;;;19.41;40.40;98472.88;5089819;28;20440;-75
2022/07/10 11:09:30;;;;;;;2.85;0.70;;;;;;;19.38;40.30;98476.38;5074383;28;20099;-75
2022/07/10 11:11:59;;;;;;;2.70;0.90;;;;;;;19.39;40.99;98478.00;5091395;28;20075;-75
2022/07/10 11:14:28;;;;;;;1.92;0.70;;;;;;;19.45;40.42;98481.31;5091838;28;20036;-75
2022/07/10 11:16:54;;;;;;;3.22;0.60;;;;;;;19.52;39.04;98492.66;5092319;28;20031;-76
2022/07/10 11:19:28;;;;;;;2.25;0.50;;;;;;;19.46;39.41;98489.31;5092238;28;20051;-76
2022/07/10 11:22:11;;;;;;;1.75;0.40;;;;;;;19.49;38.90;98480.28;5092321;28;20127;-75
2022/07/10 11:25:14;;;;;;;1.08;0.30;;;;;;;19.51;38.85;98485.47;5091986;28;20042;-76
2022/07/10 11:28:18;;;;;;;6.80;0.88;;;;;;;19.67;39.05;98476.34;5092519;28;20377;-74
2022/07/10 11:30:50;;;;;;;1.08;0.40;;;;;;;19.98;39.47;98474.78;5086946;28;20396;-74
2022/07/10 11:33:17;;;;;;;1.75;0.50;;;;;;;20.21;39.58;98486.09;5092071;28;20024;-75
2022/07/10 11:35:47;;;;;;;2.28;0.50;;;;;;;20.45;38.36;98487.88;5092228;28;20044;-75
2022/07/10 11:38:12;;;;;;;2.22;0.55;;;;;;;20.73;37.01;98472.16;5073586;28;20468;-75
2022/07/10 11:40:38;;;;;;;1.55;0.50;;;;;;;20.87;36.88;98489.22;5092241;28;20058;-75
2022/07/10 11:43:06;;;;;;;2.45;0.80;;;;;;;20.69;36.22;98499.94;5091280;28;20032;-78
2022/07/10 11:45:36;;;;;;;1.08;0.40;;;;;;;20.38;35.70;98499.63;5091864;28;20498;-80